Time;durP1;ratioP1;P1;durP2;ratioP2;P2;SDS_P1;SDS_P2;PMS_P1;PMS_P2;Temp;Humidity;BMP_temperature;BMP_pressure;BME280_temperature;BME280_humidity;BME280_pressure;Samples;Min_cycle;Max_cycle;Signal;HPM_P1;HPM_P2
2022/10/24 00:00:17;;;;;;;3.22;1.13;;;15.30;99.90;;;;;;5072993;28;20036;-68
2022/10/24 00:02:42;;;;;;;5.32;1.38;;;15.30;99.90;;;;;;5072529;28;20036;-69
2022/10/24 00:05:11;;;;;;;7.55;1.17;;;15.30;99.90;;;;;;5073447;28;20059;-68
2022/10/24 00:07:37;;;;;;;4.30;1.27;;;15.30;99.90;;;;;;5074445;28;20089;-68
2022/10/24 00:10:03;;;;;;;3.92;0.98;;;15.30;99.90;;;;;;5073618;28;20448;-68
2022/10/24 00:12:29;;;;;;;5.97;1.45;;;15.30;99.90;;;;;;5074030;28;20036;-68
2022/10/24 00:14:55;;;;;;;6.00;1.42;;;15.30;99.90;;;;;;5072968;28;20032;-68
2022/10/24 00:17:20;;;;;;;2.03;0.80;;;15.30;99.90;;;;;;5070046;28;20039;-68
2022/10/24 00:19:46;;;;;;;4.38;1.20;;;15.30;99.90;;;;;;5072560;28;20039;-69
2022/10/24 00:22:11;;;;;;;3.15;1.13;;;15.30;99.90;;;;;;5057397;28;20513;-68
2022/10/24 00:24:37;;;;;;;5.38;1.55;;;15.30;99.90;;;;;;5073407;28;20047;-68
2022/10/24 00:27:03;;;;;;;4.22;1.10;;;15.30;99.90;;;;;;5072689;28;20047;-68
2022/10/24 00:29:29;;;;;;;3.50;1.35;;;15.30;99.90;;;;;;5072500;28;20047;-68
2022/10/24 00:31:54;;;;;;;4.00;1.40;;;15.30;99.90;;;;;;5072536;28;20047;-67
2022/10/24 00:34:20;;;;;;;3.97;1.20;;;15.30;99.90;;;;;;5074028;28;20028;-68
2022/10/24 00:36:45;;;;;;;3.53;1.30;;;15.30;99.90;;;;;;5071937;28;20164;-68
2022/10/24 00:39:11;;;;;;;5.18;1.10;;;15.30;99.90;;;;;;5073121;28;20028;-68
2022/10/24 00:41:43;;;;;;;3.25;1.33;;;15.30;99.90;;;;;;5057540;28;20062;-68
2022/10/24 00:44:12;;;;;;;3.63;1.17;;;15.30;99.90;;;;;;5073124;28;20040;-68
2022/10/24 00:46:39;;;;;;;6.80;1.60;;;15.20;99.90;;;;;;5073783;28;20052;-68
2022/10/24 00:49:04;;;;;;;3.15;1.40;;;15.20;99.90;;;;;;5072135;28;20044;-68
2022/10/24 00:51:32;;;;;;;7.40;1.50;;;15.20;99.90;;;;;;5075940;28;20042;-68
2022/10/24 00:54:10;;;;;;;1.95;1.20;;;15.30;99.90;;;;;;5071087;28;20039;-68
2022/10/24 00:56:50;;;;;;;6.95;1.50;;;15.30;99.90;;;;;;5073429;28;20054;-68
2022/10/24 00:59:18;;;;;;;6.57;1.80;;;15.30;99.90;;;;;;5074358;28;20119;-68
2022/10/24 01:01:46;;;;;;;5.93;2.20;;;15.30;99.90;;;;;;5074124;28;20101;-68
2022/10/24 01:04:12;;;;;;;6.05;1.90;;;15.30;99.90;;;;;;5075158;28;20527;-68
2022/10/24 01:06:53;;;;;;;9.00;2.25;;;15.30;99.90;;;;;;5057235;28;20044;-68
2022/10/24 01:09:55;;;;;;;4.53;1.55;;;15.30;99.90;;;;;;5075592;28;20059;-68
2022/10/24 01:12:45;;;;;;;8.23;2.33;;;15.30;99.90;;;;;;5072770;28;20048;-68
2022/10/24 01:15:37;;;;;;;7.85;2.20;;;15.40;99.90;;;;;;5073257;28;20032;-68
2022/10/24 01:18:23;;;;;;;6.70;2.20;;;15.40;99.90;;;;;;5072931;28;20040;-68
2022/10/24 01:21:28;;;;;;;5.18;2.60;;;15.30;99.90;;;;;;5072687;28;20036;-67
2022/10/24 01:24:01;;;;;;;6.93;2.22;;;15.30;99.90;;;;;;5083395;28;20494;-68
2022/10/24 01:26:30;;;;;;;6.78;2.10;;;15.40;99.90;;;;;;5072835;28;20474;-68
2022/10/24 01:29:17;;;;;;;5.07;1.80;;;15.30;99.90;;;;;;5071633;28;20055;-68
2022/10/24 01:32:07;;;;;;;6.20;1.90;;;15.30;99.90;;;;;;5074828;28;20036;-68
2022/10/24 01:34:49;;;;;;;9.75;2.60;;;15.30;99.90;;;;;;5075580;28;20060;-68
2022/10/24 01:37:24;;;;;;;5.43;2.05;;;15.30;99.90;;;;;;5068256;28;20036;-69
2022/10/24 01:39:55;;;;;;;5.93;1.98;;;15.30;99.90;;;;;;5072368;28;20027;-68
2022/10/24 01:42:23;;;;;;;10.52;2.10;;;15.20;99.90;;;;;;5074385;28;20054;-68
2022/10/24 01:44:53;;;;;;;7.20;1.70;;;15.20;99.90;;;;;;5071227;28;20554;-68
2022/10/24 01:47:24;;;;;;;6.57;2.15;;;15.20;99.90;;;;;;5086125;28;20051;-68
2022/10/24 01:50:17;;;;;;;7.40;1.90;;;15.20;99.90;;;;;;5094408;28;20036;-68
2022/10/24 01:52:44;;;;;;;6.60;1.92;;;15.20;99.90;;;;;;5082719;28;20044;-67
2022/10/24 01:55:11;;;;;;;4.80;1.98;;;15.20;99.90;;;;;;5089893;28;20505;-68
2022/10/24 01:57:38;;;;;;;5.55;1.70;;;15.20;99.90;;;;;;5089963;28;20119;-68
2022/10/24 02:00:06;;;;;;;8.43;1.80;;;15.20;99.90;;;;;;5073477;28;20036;-69
2022/10/24 02:02:38;;;;;;;7.32;1.70;;;15.20;99.90;;;;;;5089954;28;20036;-68
2022/10/24 02:05:21;;;;;;;6.50;1.65;;;15.20;99.90;;;;;;5090904;28;20075;-69
2022/10/24 02:07:52;;;;;;;5.15;1.80;;;15.20;99.90;;;;;;5082731;28;20051;-68
2022/10/24 02:10:36;;;;;;;8.30;1.90;;;15.20;99.90;;;;;;5074143;28;20060;-68
2022/10/24 02:13:11;;;;;;;7.28;1.77;;;15.20;99.90;;;;;;5087505;28;20040;-68
2022/10/24 02:15:46;;;;;;;6.68;2.40;;;15.10;99.90;;;;;;5089851;28;20028;-68
2022/10/24 02:18:12;;;;;;;6.32;1.92;;;15.10;99.90;;;;;;5092796;28;20051;-68
2022/10/24 02:21:07;;;;;;;6.88;2.15;;;15.10;99.90;;;;;;5077683;28;20490;-68
2022/10/24 02:23:51;;;;;;;6.55;2.42;;;15.10;99.90;;;;;;5067441;28;20040;-68
2022/10/24 02:26:32;;;;;;;8.93;2.40;;;15.00;99.90;;;;;;5093158;28;20040;-68
2022/10/24 02:29:03;;;;;;;5.20;1.42;;;15.00;99.90;;;;;;5092265;28;20127;-68
2022/10/24 02:31:35;;;;;;;4.57;1.55;;;15.00;99.90;;;;;;5089388;28;20089;-68
2022/10/24 02:34:04;;;;;;;4.70;1.50;;;15.10;99.90;;;;;;5090462;28;20130;-68
2022/10/24 02:36:31;;;;;;;6.72;1.65;;;15.00;99.90;;;;;;5091910;28;20063;-68
2022/10/24 02:38:58;;;;;;;7.15;1.80;;;15.00;99.90;;;;;;5093280;28;20039;-68
2022/10/24 02:41:30;;;;;;;5.60;1.52;;;15.00;99.90;;;;;;5094756;28;20048;-68
2022/10/24 02:43:58;;;;;;;5.43;1.77;;;15.00;99.90;;;;;;5094270;28;20039;-68
2022/10/24 02:46:24;;;;;;;6.95;1.88;;;14.90;99.90;;;;;;5092410;28;20097;-68
2022/10/24 02:48:55;;;;;;;5.07;1.58;;;14.90;99.90;;;;;;5076304;28;20044;-68
2022/10/24 02:51:23;;;;;;;4.65;1.50;;;14.90;99.90;;;;;;5093439;28;20532;-68
2022/10/24 02:53:49;;;;;;;5.93;1.50;;;14.90;99.90;;;;;;5092585;28;20429;-68
2022/10/24 02:56:15;;;;;;;6.28;1.83;;;14.90;99.90;;;;;;5093088;28;20046;-68
2022/10/24 02:58:41;;;;;;;6.45;1.83;;;14.90;99.90;;;;;;5094167;28;20151;-68
2022/10/24 03:01:07;;;;;;;6.70;2.00;;;15.00;99.90;;;;;;5096143;28;20035;-68
2022/10/24 03:03:32;;;;;;;4.70;1.90;;;15.00;99.90;;;;;;5092192;28;20494;-68
2022/10/24 03:05:58;;;;;;;4.75;1.67;;;15.10;99.90;;;;;;5096196;28;20054;-68
2022/10/24 03:08:23;;;;;;;5.78;1.90;;;15.10;99.90;;;;;;5093749;28;20044;-68
2022/10/24 03:10:49;;;;;;;4.65;1.60;;;15.00;99.90;;;;;;5092383;28;20074;-68
2022/10/24 03:13:14;;;;;;;11.30;2.08;;;15.00;99.90;;;;;;5091488;28;20436;-69
2022/10/24 03:15:40;;;;;;;11.63;2.70;;;14.90;99.90;;;;;;5091483;28;20044;-68
2022/10/24 03:18:06;;;;;;;6.35;2.20;;;14.90;99.90;;;;;;5089677;28;20119;-68
2022/10/24 03:20:31;;;;;;;4.53;1.70;;;14.90;99.90;;;;;;5090374;28;20043;-68
2022/10/24 03:22:57;;;;;;;5.50;1.63;;;15.00;99.90;;;;;;5094281;28;20556;-68
2022/10/24 03:25:22;;;;;;;7.57;2.03;;;15.00;99.90;;;;;;5093793;28;20040;-68
2022/10/24 03:27:48;;;;;;;7.50;1.95;;;15.00;99.90;;;;;;5090041;28;20040;-68
2022/10/24 03:30:14;;;;;;;6.00;1.80;;;15.00;99.90;;;;;;5091046;28;20032;-68
2022/10/24 03:32:39;;;;;;;7.55;1.88;;;15.00;99.90;;;;;;5092022;28;20463;-68
2022/10/24 03:35:05;;;;;;;7.47;1.85;;;15.00;99.90;;;;;;5075037;28;20512;-68
2022/10/24 03:37:31;;;;;;;5.22;1.83;;;15.00;99.90;;;;;;5091547;28;20035;-68
2022/10/24 03:39:57;;;;;;;6.68;1.70;;;15.00;99.90;;;;;;5071911;28;20147;-68
2022/10/24 03:42:22;;;;;;;5.25;2.50;;;15.10;99.90;;;;;;5092745;28;20039;-68
2022/10/24 03:44:48;;;;;;;5.10;2.10;;;15.00;99.90;;;;;;5090481;28;20399;-68
2022/10/24 03:47:14;;;;;;;6.82;1.83;;;15.00;99.90;;;;;;5092261;28;20054;-68
2022/10/24 03:49:39;;;;;;;4.95;1.80;;;15.00;99.90;;;;;;5091162;28;20463;-68
2022/10/24 03:52:05;;;;;;;6.32;1.83;;;15.00;99.90;;;;;;5090503;28;20066;-69
2022/10/24 03:54:31;;;;;;;5.00;1.95;;;15.00;99.90;;;;;;5089378;28;20394;-68
2022/10/24 03:56:56;;;;;;;7.65;2.20;;;14.90;99.90;;;;;;5089770;28;20478;-68
2022/10/24 03:59:22;;;;;;;6.55;1.85;;;14.90;99.90;;;;;;5093938;28;20077;-68
2022/10/24 04:01:48;;;;;;;4.68;1.48;;;14.90;99.90;;;;;;5088922;28;20066;-68
2022/10/24 04:04:13;;;;;;;6.20;2.17;;;14.90;99.90;;;;;;5091920;28;20036;-68
2022/10/24 04:06:39;;;;;;;7.45;1.85;;;14.90;99.90;;;;;;5091367;28;20036;-68
2022/10/24 04:09:05;;;;;;;8.43;2.00;;;14.90;99.90;;;;;;5093877;28;20058;-68
2022/10/24 04:11:31;;;;;;;8.80;1.77;;;14.90;99.90;;;;;;5082857;28;20406;-68
2022/10/24 04:13:57;;;;;;;3.45;1.58;;;14.90;99.90;;;;;;5086176;28;20044;-68
2022/10/24 04:16:23;;;;;;;4.03;1.50;;;14.90;99.90;;;;;;5091606;28;20042;-69
2022/10/24 04:18:50;;;;;;;5.82;1.67;;;14.90;99.90;;;;;;5086842;28;20044;-68
2022/10/24 04:21:16;;;;;;;4.63;1.83;;;14.90;99.90;;;;;;5087955;28;20081;-68
2022/10/24 04:23:43;;;;;;;6.78;1.60;;;14.90;99.90;;;;;;5089422;28;20035;-68
2022/10/24 04:26:11;;;;;;;5.28;1.70;;;14.90;99.90;;;;;;5073881;28;20058;-68
2022/10/24 04:28:37;;;;;;;7.28;1.80;;;14.80;99.90;;;;;;5106877;28;20039;-68
2022/10/24 04:31:02;;;;;;;5.78;1.92;;;14.80;99.90;;;;;;5092042;28;20114;-68
2022/10/24 04:33:28;;;;;;;5.78;1.75;;;14.80;99.90;;;;;;5089932;28;20064;-67
2022/10/24 04:35:54;;;;;;;6.22;1.75;;;14.70;99.90;;;;;;5094708;28;20046;-68
2022/10/24 04:38:20;;;;;;;5.43;2.15;;;14.70;99.90;;;;;;5085666;28;20098;-69
2022/10/24 04:40:48;;;;;;;5.68;1.52;;;14.70;99.90;;;;;;5094604;28;20031;-68
2022/10/24 04:43:14;;;;;;;4.65;1.55;;;14.70;99.90;;;;;;5078409;28;20113;-68
2022/10/24 04:45:40;;;;;;;8.60;1.50;;;14.70;99.90;;;;;;5088959;28;20040;-68
2022/10/24 04:48:06;;;;;;;8.88;2.15;;;14.70;99.90;;;;;;5064692;28;20116;-69
2022/10/24 04:50:32;;;;;;;4.43;1.42;;;14.60;99.90;;;;;;5061854;28;20077;-68
2022/10/24 04:52:57;;;;;;;3.55;1.50;;;14.60;99.90;;;;;;5065954;28;20070;-68
2022/10/24 04:55:23;;;;;;;9.52;2.10;;;14.60;99.90;;;;;;5067194;28;20045;-68
2022/10/24 04:57:48;;;;;;;5.93;1.38;;;14.60;99.90;;;;;;5064723;28;20039;-68
2022/10/24 05:00:14;;;;;;;6.80;1.80;;;14.70;99.90;;;;;;5060661;28;20047;-68
2022/10/24 05:02:40;;;;;;;5.15;1.42;;;14.60;99.90;;;;;;5057139;28;20426;-68
2022/10/24 05:05:06;;;;;;;7.22;1.50;;;14.60;99.90;;;;;;5078470;28;20032;-68
2022/10/24 05:07:32;;;;;;;7.13;1.40;;;14.60;99.90;;;;;;5064370;28;20048;-68
2022/10/24 05:09:57;;;;;;;3.42;1.33;;;14.60;99.90;;;;;;5058837;28;20036;-68
2022/10/24 05:12:23;;;;;;;3.30;1.23;;;14.60;99.90;;;;;;5062389;28;20040;-69
2022/10/24 05:14:48;;;;;;;5.18;1.45;;;14.60;99.90;;;;;;5051808;28;20079;-68
2022/10/24 05:17:14;;;;;;;10.32;1.52;;;14.60;99.90;;;;;;5041363;28;20044;-69
2022/10/24 05:19:40;;;;;;;5.97;1.25;;;14.60;99.90;;;;;;5062438;28;20034;-68
2022/10/24 05:22:06;;;;;;;5.13;1.23;;;14.60;99.90;;;;;;5064964;28;20131;-68
2022/10/24 05:24:31;;;;;;;10.60;1.40;;;14.60;99.90;;;;;;5073448;28;20116;-69
2022/10/24 05:26:57;;;;;;;7.60;1.33;;;14.60;99.90;;;;;;5041516;28;20047;-68
2022/10/24 05:29:24;;;;;;;5.47;1.20;;;14.60;99.90;;;;;;5071489;28;20044;-67
2022/10/24 05:31:50;;;;;;;6.95;1.63;;;14.60;99.90;;;;;;5051143;28;20070;-67
2022/10/24 05:34:15;;;;;;;7.63;1.55;;;14.60;99.90;;;;;;5057082;28;20491;-67
2022/10/24 05:36:41;;;;;;;6.88;1.30;;;14.50;99.90;;;;;;5069314;28;20032;-67
2022/10/24 05:39:07;;;;;;;9.15;1.80;;;14.50;99.90;;;;;;5056413;28;20497;-67
2022/10/24 05:41:32;;;;;;;4.95;1.35;;;14.50;99.90;;;;;;5054316;28;20040;-67
2022/10/24 05:43:58;;;;;;;4.82;1.20;;;14.50;99.90;;;;;;5057298;28;20130;-67
2022/10/24 05:46:24;;;;;;;3.75;1.25;;;14.50;99.90;;;;;;5055233;28;20388;-68
2022/10/24 05:48:49;;;;;;;6.07;1.30;;;14.60;99.90;;;;;;5057237;28;20482;-67
2022/10/24 05:51:15;;;;;;;5.03;1.10;;;14.60;99.90;;;;;;5038791;28;20052;-66
2022/10/24 05:53:40;;;;;;;4.55;1.05;;;14.60;99.90;;;;;;5038396;28;20048;-67
2022/10/24 05:56:06;;;;;;;4.35;1.30;;;14.60;99.90;;;;;;5045787;28;20398;-67
2022/10/24 05:58:32;;;;;;;8.43;1.33;;;14.60;99.90;;;;;;5038160;28;20447;-67
2022/10/24 06:00:58;;;;;;;6.15;1.10;;;14.70;99.90;;;;;;5058268;28;20433;-66
2022/10/24 06:03:24;;;;;;;6.45;1.38;;;14.70;99.90;;;;;;5048218;28;20051;-67
2022/10/24 06:05:49;;;;;;;5.07;1.45;;;14.70;99.90;;;;;;5064271;28;20098;-67
2022/10/24 06:08:15;;;;;;;6.38;1.20;;;14.70;99.90;;;;;;5046317;28;20071;-67
2022/10/24 06:10:44;;;;;;;7.13;1.17;;;14.70;99.90;;;;;;5043062;28;20070;-67
2022/10/24 06:13:10;;;;;;;6.53;1.10;;;14.70;99.90;;;;;;5055081;28;20054;-67
2022/10/24 06:15:35;;;;;;;4.20;1.10;;;14.70;99.90;;;;;;5054377;28;20386;-67
2022/10/24 06:18:01;;;;;;;6.82;1.10;;;14.60;99.90;;;;;;5050574;28;20037;-67
2022/10/24 06:20:27;;;;;;;4.88;1.13;;;14.70;99.90;;;;;;5052817;28;20036;-68
2022/10/24 06:22:52;;;;;;;6.07;1.25;;;14.70;99.90;;;;;;5051490;28;20051;-67
2022/10/24 06:25:18;;;;;;;4.35;1.20;;;14.70;99.90;;;;;;5068128;28;20112;-66
2022/10/24 06:27:44;;;;;;;4.93;1.30;;;14.70;99.90;;;;;;5068330;28;20105;-67
2022/10/24 06:30:10;;;;;;;3.25;1.13;;;14.70;99.90;;;;;;5051406;28;20525;-67
2022/10/24 06:32:36;;;;;;;5.00;1.00;;;14.70;99.90;;;;;;5050566;28;20127;-67
2022/10/24 06:35:02;;;;;;;4.45;1.15;;;14.60;99.90;;;;;;5052944;28;20107;-67
2022/10/24 06:37:29;;;;;;;5.70;1.40;;;14.60;99.90;;;;;;5051803;28;20550;-67
2022/10/24 06:39:54;;;;;;;5.80;1.52;;;14.60;99.90;;;;;;5047153;28;20049;-67
2022/10/24 06:42:20;;;;;;;4.28;1.27;;;14.60;99.90;;;;;;5059680;28;20162;-67
2022/10/24 06:44:45;;;;;;;3.15;1.02;;;14.50;99.90;;;;;;5047018;28;20101;-67
2022/10/24 06:47:11;;;;;;;9.15;1.70;;;14.50;99.90;;;;;;5046773;28;20075;-68
2022/10/24 06:49:37;;;;;;;5.28;1.27;;;14.50;99.90;;;;;;5066243;28;20410;-67
2022/10/24 06:52:03;;;;;;;7.28;1.30;;;14.60;99.90;;;;;;5071440;28;20051;-67
2022/10/24 06:54:29;;;;;;;9.07;1.63;;;14.60;99.90;;;;;;5071537;28;20036;-67
2022/10/24 06:56:55;;;;;;;7.68;1.33;;;14.70;99.90;;;;;;5054933;28;20052;-67
2022/10/24 06:59:21;;;;;;;5.22;1.25;;;14.80;99.90;;;;;;5071248;28;20044;-67
2022/10/24 07:01:46;;;;;;;6.90;1.52;;;14.80;99.90;;;;;;5055688;28;20043;-67
2022/10/24 07:04:12;;;;;;;3.75;1.13;;;14.90;99.90;;;;;;5075238;28;20040;-68
2022/10/24 07:06:39;;;;;;;6.80;1.20;;;15.00;99.90;;;;;;5058939;28;20032;-67
2022/10/24 07:09:04;;;;;;;9.70;1.13;;;15.10;99.90;;;;;;5075103;28;20036;-68
2022/10/24 07:11:31;;;;;;;6.53;1.38;;;15.20;99.90;;;;;;5075981;28;20407;-68
2022/10/24 07:13:57;;;;;;;4.35;1.40;;;15.20;99.90;;;;;;5058432;28;20039;-67
2022/10/24 07:16:24;;;;;;;6.43;1.70;;;15.30;99.90;;;;;;5075522;28;20043;-67
2022/10/24 07:18:49;;;;;;;4.78;1.08;;;15.30;99.90;;;;;;5075341;28;20039;-67
2022/10/24 07:21:19;;;;;;;4.93;1.25;;;15.40;99.90;;;;;;5074952;28;20657;-67
2022/10/24 07:23:45;;;;;;;6.10;1.17;;;15.40;99.90;;;;;;5075786;28;20127;-70
2022/10/24 07:26:14;;;;;;;3.45;1.05;;;15.30;99.90;;;;;;5058413;28;20062;-70
2022/10/24 07:28:43;;;;;;;5.97;1.13;;;15.30;99.90;;;;;;5074766;28;20039;-68
2022/10/24 07:31:09;;;;;;;6.65;1.20;;;15.30;99.90;;;;;;5074433;28;20109;-70
2022/10/24 07:33:38;;;;;;;5.10;1.25;;;15.30;99.90;;;;;;5058153;28;20044;-67
2022/10/24 07:36:04;;;;;;;9.10;1.40;;;15.30;99.90;;;;;;5074714;28;20055;-69
2022/10/24 07:38:29;;;;;;;5.97;2.10;;;15.30;99.90;;;;;;5074923;28;20043;-68
2022/10/24 07:40:55;;;;;;;5.80;1.30;;;15.30;99.90;;;;;;5092797;28;20403;-67
2022/10/24 07:43:21;;;;;;;7.32;1.52;;;15.30;99.90;;;;;;5074653;28;20040;-69
2022/10/24 07:45:47;;;;;;;5.55;1.35;;;15.40;99.90;;;;;;5074571;28;20040;-69
2022/10/24 07:48:13;;;;;;;5.10;1.33;;;15.30;99.90;;;;;;5074281;28;20055;-68
2022/10/24 07:50:44;;;;;;;9.10;1.88;;;15.40;99.90;;;;;;5058085;28;20036;-69
2022/10/24 07:53:11;;;;;;;5.00;1.25;;;15.40;99.90;;;;;;5073867;28;20067;-69
2022/10/24 07:55:41;;;;;;;7.63;1.30;;;15.40;99.90;;;;;;5074632;28;20428;-69
2022/10/24 07:58:08;;;;;;;7.55;1.40;;;15.50;99.90;;;;;;5074251;28;20032;-70
2022/10/24 08:00:34;;;;;;;7.18;1.13;;;15.50;99.90;;;;;;5074420;28;20048;-69
2022/10/24 08:03:00;;;;;;;6.38;1.45;;;15.50;99.90;;;;;;5073941;28;20185;-68
2022/10/24 08:05:26;;;;;;;5.43;1.00;;;15.50;99.90;;;;;;5074213;28;20040;-70
2022/10/24 08:07:52;;;;;;;4.88;1.42;;;15.50;99.90;;;;;;5074571;28;20067;-69
2022/10/24 08:10:17;;;;;;;5.75;0.98;;;15.60;99.90;;;;;;5070568;28;20413;-68
2022/10/24 08:12:43;;;;;;;8.55;1.30;;;15.60;99.90;;;;;;5056713;28;20520;-69
2022/10/24 08:15:09;;;;;;;8.38;1.35;;;15.70;99.90;;;;;;5054764;28;20082;-69
2022/10/24 08:17:35;;;;;;;4.45;1.00;;;15.70;99.90;;;;;;5057032;28;20077;-70
2022/10/24 08:20:06;;;;;;;5.47;1.30;;;15.70;99.90;;;;;;5057015;28;20044;-68
2022/10/24 08:22:32;;;;;;;6.40;1.20;;;15.70;99.90;;;;;;5073274;28;20206;-67
2022/10/24 08:24:59;;;;;;;6.85;1.23;;;15.70;99.90;;;;;;5072618;28;20122;-67
2022/10/24 08:27:25;;;;;;;5.95;1.83;;;15.80;99.90;;;;;;5073102;28;20502;-69
2022/10/24 08:29:50;;;;;;;6.43;1.25;;;15.80;99.90;;;;;;5073563;28;20109;-68
2022/10/24 08:32:16;;;;;;;5.38;1.17;;;15.90;99.90;;;;;;5073541;28;20498;-68
2022/10/24 08:34:41;;;;;;;8.57;1.48;;;16.00;99.90;;;;;;5072383;28;20040;-69
2022/10/24 08:37:07;;;;;;;6.22;1.25;;;16.10;99.90;;;;;;5056360;28;20056;-68
2022/10/24 08:39:33;;;;;;;11.63;1.48;;;16.20;99.90;;;;;;5073048;28;20040;-69
2022/10/24 08:42:04;;;;;;;5.63;1.38;;;16.40;99.90;;;;;;5073435;28;20040;-68
2022/10/24 08:44:36;;;;;;;7.13;2.00;;;16.50;99.90;;;;;;5072659;28;20054;-69
2022/10/24 08:47:12;;;;;;;12.10;2.75;;;16.50;99.90;;;;;;5054441;28;20067;-69
2022/10/24 08:49:48;;;;;;;3.67;1.17;;;16.50;99.90;;;;;;5056089;28;20051;-68
2022/10/24 08:52:31;;;;;;;8.40;1.27;;;16.50;99.90;;;;;;5072996;28;20069;-68
2022/10/24 08:55:12;;;;;;;6.55;1.10;;;16.60;99.90;;;;;;5056365;28;20510;-68
2022/10/24 08:57:41;;;;;;;4.32;1.00;;;16.60;99.90;;;;;;5071152;28;20038;-69
2022/10/24 09:00:17;;;;;;;8.65;1.40;;;16.60;99.90;;;;;;5072531;28;20032;-68
2022/10/24 09:02:50;;;;;;;7.00;1.20;;;16.50;99.90;;;;;;5072683;28;20043;-67
2022/10/24 09:05:19;;;;;;;4.97;1.15;;;16.40;99.90;;;;;;5072289;28;20131;-67
2022/10/24 09:07:46;;;;;;;9.32;1.30;;;16.30;99.90;;;;;;5055481;28;20427;-68
2022/10/24 09:10:21;;;;;;;5.97;1.50;;;16.30;99.90;;;;;;5073065;28;20075;-68
2022/10/24 09:12:47;;;;;;;4.75;1.23;;;16.30;99.90;;;;;;5072926;28;20402;-67
2022/10/24 09:15:23;;;;;;;7.55;1.20;;;16.20;99.90;;;;;;5072959;28;20061;-67
2022/10/24 09:17:49;;;;;;;8.95;1.88;;;16.20;99.90;;;;;;5072510;28;20483;-67
2022/10/24 09:20:20;;;;;;;7.20;1.17;;;16.40;99.90;;;;;;5072884;28;20032;-68
2022/10/24 09:22:46;;;;;;;3.67;1.10;;;16.40;99.90;;;;;;5072598;28;20036;-67
2022/10/24 09:25:19;;;;;;;5.10;1.63;;;16.40;99.90;;;;;;5072626;28;20398;-66
2022/10/24 09:27:44;;;;;;;5.35;1.30;;;16.40;99.90;;;;;;5055696;28;20111;-68
2022/10/24 09:30:26;;;;;;;4.97;1.30;;;16.40;99.90;;;;;;5072383;28;20165;-69
2022/10/24 09:32:57;;;;;;;6.73;1.40;;;16.40;99.90;;;;;;5072393;28;20040;-68
2022/10/24 09:35:28;;;;;;;8.05;1.20;;;16.40;99.90;;;;;;5072698;28;20051;-68
2022/10/24 09:37:56;;;;;;;4.75;1.00;;;16.50;99.90;;;;;;5072803;28;20040;-69
2022/10/24 09:40:33;;;;;;;6.75;1.75;;;16.70;99.90;;;;;;5072218;28;20036;-68
2022/10/24 09:43:15;;;;;;;10.57;1.80;;;17.00;99.90;;;;;;5072177;28;20094;-67
2022/10/24 09:46:00;;;;;;;5.72;0.90;;;17.30;99.90;;;;;;5072333;28;20044;-69
2022/10/24 09:49:15;;;;;;;5.07;1.10;;;17.50;99.90;;;;;;5072591;28;20143;-70
2022/10/24 09:51:58;;;;;;;4.95;1.00;;;17.80;99.90;;;;;;4988123;28;20041;-68
2022/10/24 09:54:28;;;;;;;;;;;17.80;99.90;;;;;;4992620;28;20038;-69
2022/10/24 09:56:56;;;;;;;8.38;1.05;;;18.00;99.90;;;;;;4991856;28;20036;-70
2022/10/24 09:59:36;;;;;;;5.68;1.30;;;17.90;99.90;;;;;;4975603;28;20096;-68
2022/10/24 10:02:13;;;;;;;4.95;1.25;;;17.70;99.90;;;;;;4989104;28;20061;-70
2022/10/24 10:04:40;;;;;;;11.68;1.65;;;17.60;99.90;;;;;;4974827;28;20050;-69
2022/10/24 10:07:16;;;;;;;7.95;1.30;;;17.70;99.90;;;;;;4991218;28;20050;-69
2022/10/24 10:09:54;;;;;;;6.15;1.13;;;17.90;99.90;;;;;;4991708;28;20057;-68
2022/10/24 10:12:35;;;;;;;5.35;0.90;;;18.10;99.90;;;;;;4974341;28;20052;-68
2022/10/24 10:15:29;;;;;;;7.18;0.93;;;18.20;99.90;;;;;;4989658;28;20488;-68
2022/10/24 10:17:59;;;;;;;4.60;1.10;;;18.10;99.90;;;;;;4960890;28;20050;-71
2022/10/24 10:20:40;;;;;;;3.10;0.82;;;17.80;99.90;;;;;;4974915;28;20054;-69
2022/10/24 10:23:42;;;;;;;4.78;0.93;;;17.60;99.90;;;;;;4989487;28;20053;-69
2022/10/24 10:26:18;;;;;;;4.75;1.55;;;17.80;99.90;;;;;;4977735;28;20058;-68
2022/10/24 10:29:03;;;;;;;6.28;1.25;;;18.00;99.90;;;;;;5029092;28;20559;-67
2022/10/24 10:31:43;;;;;;;4.53;1.00;;;18.10;99.90;;;;;;5071959;28;20059;-67
2022/10/24 10:34:26;;;;;;;5.20;1.55;;;18.30;99.90;;;;;;5054696;28;20067;-67
2022/10/24 10:37:11;;;;;;;6.18;1.10;;;18.20;99.90;;;;;;5067259;28;20048;-69
2022/10/24 10:39:49;;;;;;;4.00;1.00;;;18.20;99.90;;;;;;5072727;28;20040;-68
2022/10/24 10:42:23;;;;;;;5.70;0.95;;;18.10;99.90;;;;;;5075300;28;20047;-70
2022/10/24 10:44:55;;;;;;;6.82;0.95;;;18.10;99.90;;;;;;5075098;28;20036;-67
2022/10/24 10:47:53;;;;;;;;;;;17.90;99.90;;;;;;5085476;28;20050;-68
2022/10/24 10:50:25;;;;;;;3.88;0.95;;;18.10;99.90;;;;;;5014507;28;20359;-67
2022/10/24 10:52:54;;;;;;;4.03;0.90;;;18.30;99.90;;;;;;4998493;28;20468;-69
2022/10/24 10:55:28;;;;;;;4.45;1.00;;;18.20;99.90;;;;;;4998371;28;20550;-68
2022/10/24 10:58:21;;;;;;;3.78;1.17;;;18.20;99.90;;;;;;5014367;28;20040;-66
2022/10/24 11:01:08;;;;;;;4.25;0.80;;;18.20;99.90;;;;;;4997795;28;20053;-66
2022/10/24 11:03:46;;;;;;;5.30;1.25;;;18.20;99.90;;;;;;4995722;28;20373;-67
2022/10/24 11:06:41;;;;;;;7.70;1.23;;;18.30;99.90;;;;;;4996710;28;20044;-68
2022/10/24 11:09:13;;;;;;;8.20;1.40;;;18.40;99.90;;;;;;4997287;28;20045;-68
2022/10/24 11:11:47;;;;;;;7.38;1.10;;;18.50;99.90;;;;;;5030659;28;20578;-69
2022/10/24 11:14:29;;;;;;;5.60;1.35;;;18.30;99.90;;;;;;5014656;28;20053;-68
2022/10/24 11:17:00;;;;;;;4.33;1.33;;;18.20;99.90;;;;;;5014337;28;20143;-69
2022/10/24 11:19:32;;;;;;;5.60;0.80;;;18.10;99.90;;;;;;5014570;28;20112;-68
2022/10/24 11:22:02;;;;;;;21.77;2.67;;;17.80;99.90;;;;;;5030461;28;20049;-68
2022/10/24 11:24:36;;;;;;;5.85;1.13;;;17.70;99.90;;;;;;5014264;28;20048;-67
2022/10/24 11:27:15;;;;;;;3.45;0.95;;;17.60;99.90;;;;;;5089524;28;20406;-68
2022/10/24 11:30:05;;;;;;;5.35;0.85;;;17.60;99.90;;;;;;5092047;28;20032;-69
2022/10/24 11:33:12;;;;;;;5.05;1.02;;;17.60;99.90;;;;;;5073035;28;20051;-68
2022/10/24 11:35:43;;;;;;;5.95;0.80;;;17.50;99.90;;;;;;5091810;28;20082;-70
2022/10/24 11:38:17;;;;;;;4.20;1.38;;;17.50;99.90;;;;;;5075360;28;20039;-68
2022/10/24 11:40:46;;;;;;;3.95;0.88;;;17.50;99.90;;;;;;5091706;28;20052;-69
2022/10/24 11:43:34;;;;;;;5.97;1.02;;;17.40;99.90;;;;;;5090840;28;20044;-67
2022/10/24 11:46:05;;;;;;;6.80;1.00;;;17.40;99.90;;;;;;5055034;28;20053;-68
2022/10/24 11:48:37;;;;;;;5.50;1.08;;;17.40;99.90;;;;;;5058032;28;20044;-69
2022/10/24 11:51:18;;;;;;;6.57;1.45;;;17.30;99.90;;;;;;5075027;28;20067;-67
2022/10/24 11:53:44;;;;;;;5.35;1.00;;;17.30;99.90;;;;;;5074585;28;20535;-68
2022/10/24 11:56:50;;;;;;;5.25;1.10;;;17.20;99.90;;;;;;5054983;28;20050;-68
2022/10/24 11:59:24;;;;;;;5.20;1.08;;;17.20;99.90;;;;;;5070533;28;20422;-67
2022/10/24 12:02:11;;;;;;;5.43;0.80;;;17.00;99.90;;;;;;5069474;28;20048;-68
2022/10/24 12:05:08;;;;;;;5.15;1.00;;;16.90;99.90;;;;;;5064646;28;20041;-67
2022/10/24 12:08:05;;;;;;;4.43;0.98;;;17.00;99.90;;;;;;5068700;28;20115;-68
2022/10/24 12:10:45;;;;;;;5.80;1.23;;;16.90;99.90;;;;;;5074082;28;20486;-68
2022/10/24 12:13:22;;;;;;;4.18;0.88;;;16.90;99.90;;;;;;5069099;28;20047;-67
2022/10/24 12:16:01;;;;;;;3.97;0.93;;;16.90;99.90;;;;;;5071340;28;20453;-68
2022/10/24 12:18:34;;;;;;;4.18;0.80;;;17.00;99.90;;;;;;5057165;28;20498;-68
2022/10/24 12:21:11;;;;;;;5.25;0.82;;;16.90;99.90;;;;;;5070498;28;20036;-68
2022/10/24 12:23:38;;;;;;;6.65;1.23;;;16.90;99.90;;;;;;5068573;28;20044;-67
2022/10/24 12:26:07;;;;;;;3.03;0.68;;;16.90;99.90;;;;;;5073768;28;20062;-69
2022/10/24 12:28:34;;;;;;;6.45;0.80;;;17.10;99.90;;;;;;5073744;28;20036;-68
2022/10/24 12:31:17;;;;;;;5.30;1.10;;;17.00;99.90;;;;;;5070273;28;20067;-67
2022/10/24 12:33:44;;;;;;;11.85;0.90;;;16.90;99.90;;;;;;5071646;28;20036;-69
2022/10/24 12:36:10;;;;;;;8.13;0.90;;;16.70;99.90;;;;;;5072959;28;20039;-68
2022/10/24 12:38:36;;;;;;;7.72;1.10;;;16.60;99.90;;;;;;5052589;28;20051;-70
2022/10/24 12:41:23;;;;;;;6.28;0.90;;;16.50;99.90;;;;;;5074841;28;20048;-68
2022/10/24 12:43:49;;;;;;;5.57;1.20;;;16.40;99.90;;;;;;5072630;28;20044;-68
2022/10/24 12:46:15;;;;;;;5.88;0.90;;;16.40;99.90;;;;;;5057223;28;20032;-69
2022/10/24 12:48:57;;;;;;;2.92;0.65;;;16.40;99.90;;;;;;5072697;28;20057;-70
2022/10/24 12:51:29;;;;;;;4.05;0.93;;;16.40;99.90;;;;;;5072879;28;20040;-68
2022/10/24 12:54:10;;;;;;;5.20;0.90;;;16.40;99.90;;;;;;5051462;28;20166;-67
2022/10/24 12:56:59;;;;;;;6.20;0.90;;;16.50;99.90;;;;;;5051932;28;20043;-67
2022/10/24 12:59:33;;;;;;;5.75;1.13;;;16.50;99.90;;;;;;5066161;28;20040;-68
2022/10/24 13:02:14;;;;;;;5.30;1.02;;;16.50;99.90;;;;;;5072110;28;20122;-69
2022/10/24 13:04:52;;;;;;;3.45;0.73;;;16.40;99.90;;;;;;5064208;28;20043;-68
2022/10/24 13:07:35;;;;;;;5.05;1.05;;;16.40;99.90;;;;;;5071941;28;20047;-67